Terminal Aerodrome Forecast
Issued by NWS

Home | Current Version | Previous Version | Text Only | Print | Product List | Glossary On
Versions: 1 2 3 4 5 6 7 8 9 10 11 12 13 14 15
035
FTUS42 KGSP 251126
TAFGMU
TAF
KGMU 251126Z 2512/2612 VRB03KT P6SM SCT250
     FM251700 15004KT P6SM SCT060
     FM252100 22006KT P6SM BKN060
     FM260200 VRB02KT P6SM SCT070
     FM261100 03006KT P6SM SCT060=

USA.gov is the U.S. government's official web portal to all federal, state and local government web resources and services.